createdAt,value
2022-11-21T00:00:35.895Z,99871.28
2022-11-21T00:03:03.418Z,99870.16
2022-11-21T00:05:31.267Z,99876.84
2022-11-21T00:08:00.071Z,99877.69
2022-11-21T00:10:27.663Z,99888.94
2022-11-21T00:12:56.053Z,99882.13
2022-11-21T00:15:23.918Z,99884.47
2022-11-21T00:17:51.596Z,99886.69
2022-11-21T00:20:19.350Z,99891.69
2022-11-21T00:22:46.893Z,99890.09
2022-11-21T00:25:15.854Z,99893.13
2022-11-21T00:27:43.503Z,99886.50
2022-11-21T00:30:11.667Z,99900.19
2022-11-21T00:32:39.200Z,99908.09
2022-11-21T00:35:07.068Z,99900.59
2022-11-21T00:37:34.773Z,99896.16
2022-11-21T00:40:02.322Z,99890.75
2022-11-21T00:42:31.162Z,99895.31
2022-11-21T00:44:58.672Z,99900.09
2022-11-21T00:47:26.132Z,99903.69
2022-11-21T00:49:53.587Z,99895.28
2022-11-21T00:52:21.078Z,99905.41
2022-11-21T00:54:48.605Z,99889.41
2022-11-21T00:57:16.066Z,99884.63
2022-11-21T00:59:44.928Z,99873.94
2022-11-21T01:02:13.811Z,99880.69
2022-11-21T01:04:41.457Z,99875.38
2022-11-21T01:07:08.970Z,99862.38
2022-11-21T01:09:36.532Z,99879.03
2022-11-21T01:12:04.034Z,99879.16
2022-11-21T01:14:31.728Z,99877.00
2022-11-21T01:17:00.540Z,99871.28
2022-11-21T01:19:28.049Z,99881.59
2022-11-21T01:21:55.725Z,99888.88
2022-11-21T01:24:23.208Z,99886.44
2022-11-21T01:26:51.204Z,99890.47
2022-11-21T01:29:18.743Z,99885.69
2022-11-21T01:31:46.220Z,99888.16
2022-11-21T01:34:15.896Z,99889.88
2022-11-21T01:36:43.410Z,99886.72
2022-11-21T01:39:11.564Z,99884.09
2022-11-21T01:41:39.644Z,99892.00
2022-11-21T01:44:12.071Z,99889.28
2022-11-21T01:46:39.544Z,99894.34
2022-11-21T01:49:07.594Z,99891.06
2022-11-21T01:51:37.575Z,99891.84
2022-11-21T01:54:06.445Z,99890.59
2022-11-21T01:56:35.724Z,99892.75
2022-11-21T01:59:03.260Z,99901.63
2022-11-21T02:01:30.847Z,99902.31
2022-11-21T02:03:58.845Z,99900.13
2022-11-21T02:06:26.405Z,99900.09
2022-11-21T02:08:55.364Z,99889.88
2022-11-21T02:11:24.732Z,99888.16
2022-11-21T02:13:52.237Z,99884.28
2022-11-21T02:16:19.759Z,99881.97
2022-11-21T02:18:47.292Z,99885.25
2022-11-21T02:21:16.839Z,99878.41
2022-11-21T02:23:46.465Z,99880.38
2022-11-21T02:26:15.351Z,99877.03
2022-11-21T02:28:42.835Z,99869.50
2022-11-21T02:31:10.283Z,99876.31
2022-11-21T02:33:37.813Z,99878.53
2022-11-21T02:36:05.571Z,99881.44
2022-11-21T02:38:33.508Z,99884.75
2022-11-21T02:41:03.163Z,99878.69
2022-11-21T02:43:32.238Z,99880.63
2022-11-21T02:46:00.053Z,99877.69
2022-11-21T02:48:27.531Z,99889.78
2022-11-21T02:50:54.980Z,99891.91
2022-11-21T02:53:22.445Z,99898.84
2022-11-21T02:55:49.941Z,99887.63
2022-11-21T02:58:17.482Z,99883.22
2022-11-21T03:00:46.322Z,99882.66
2022-11-21T03:03:14.565Z,99882.66
2022-11-21T03:05:42.095Z,99880.75
2022-11-21T03:08:10.176Z,99872.75
2022-11-21T03:10:37.765Z,99867.59
2022-11-21T03:13:05.855Z,99873.31
2022-11-21T03:15:34.338Z,99869.31
2022-11-21T03:18:03.673Z,99858.72
2022-11-21T03:20:31.698Z,99848.50
2022-11-21T03:22:59.324Z,99860.22
2022-11-21T03:25:27.089Z,99862.06
2022-11-21T03:27:54.984Z,99867.00
2022-11-21T03:30:22.812Z,99870.13
2022-11-21T03:32:50.247Z,99872.00
2022-11-21T03:35:19.158Z,99858.25
2022-11-21T03:37:47.037Z,99855.06
2022-11-21T03:40:14.785Z,99854.44
2022-11-21T03:42:42.281Z,99872.38
2022-11-21T03:45:10.248Z,99866.59
2022-11-21T03:47:37.726Z,99859.69
2022-11-21T03:50:05.359Z,99859.91
2022-11-21T03:52:34.203Z,99861.50
2022-11-21T03:55:01.719Z,99866.47
2022-11-21T03:57:29.193Z,99861.84
2022-11-21T03:59:56.649Z,99859.72
2022-11-21T04:02:24.144Z,99870.84
2022-11-21T04:04:51.602Z,99860.56
2022-11-21T04:07:19.096Z,99872.56
2022-11-21T04:09:47.930Z,99862.25
2022-11-21T04:12:15.387Z,99862.38
2022-11-21T04:14:42.854Z,99854.72
2022-11-21T04:17:10.344Z,99856.38
2022-11-21T04:19:37.803Z,99860.09
2022-11-21T04:22:05.363Z,99861.13
2022-11-21T04:24:32.907Z,99859.00
2022-11-21T04:27:01.747Z,99860.88
2022-11-21T04:29:29.236Z,99861.56
2022-11-21T04:31:56.767Z,99857.53
2022-11-21T04:34:24.274Z,99855.09
2022-11-21T04:36:51.837Z,99854.06
2022-11-21T04:39:19.408Z,99845.38
2022-11-21T04:41:46.887Z,99834.59
2022-11-21T04:44:15.811Z,99827.72
2022-11-21T04:46:43.314Z,99827.44
2022-11-21T04:49:10.848Z,99824.78
2022-11-21T04:51:38.343Z,99815.97
2022-11-21T04:54:05.963Z,99818.00
2022-11-21T04:56:33.415Z,99824.41
2022-11-21T04:59:00.882Z,99824.16
2022-11-21T05:01:29.716Z,99825.81
2022-11-21T05:03:57.268Z,99813.31
2022-11-21T05:06:24.768Z,99808.31
2022-11-21T05:08:54.105Z,99812.50
2022-11-21T05:11:39.469Z,99803.41
2022-11-21T05:14:07.005Z,99806.53
2022-11-21T05:16:35.841Z,99801.53
2022-11-21T05:19:03.357Z,99796.00
2022-11-21T05:21:30.917Z,99808.16
2022-11-21T05:23:58.383Z,99810.50
2022-11-21T05:26:25.919Z,99817.50
2022-11-21T05:28:53.376Z,99812.19
2022-11-21T05:31:20.860Z,99813.81
2022-11-21T05:33:49.721Z,99810.50
2022-11-21T05:36:17.207Z,99804.50
2022-11-21T05:38:44.715Z,99805.34
2022-11-21T05:41:12.232Z,99807.84
2022-11-21T05:43:47.541Z,99798.50
2022-11-21T05:46:15.387Z,99808.41
2022-11-21T05:48:42.860Z,99805.69
2022-11-21T05:51:11.837Z,99807.44
2022-11-21T05:53:39.439Z,99810.78
2022-11-21T05:56:07.947Z,99806.50
2022-11-21T05:58:35.582Z,99804.88
2022-11-21T06:01:03.234Z,99808.28
2022-11-21T06:03:31.035Z,99800.88
2022-11-21T06:06:02.335Z,99792.47
2022-11-21T06:08:31.870Z,99788.41
2022-11-21T06:10:59.380Z,99789.41
2022-11-21T06:13:26.922Z,99775.06
2022-11-21T06:15:56.931Z,99770.19
2022-11-21T06:18:24.468Z,99774.31
2022-11-21T06:20:52.116Z,99765.34
2022-11-21T06:23:19.741Z,99761.06
2022-11-21T06:25:48.607Z,99767.84
2022-11-21T06:28:16.108Z,99764.38
2022-11-21T06:30:43.655Z,99762.72
2022-11-21T06:33:11.153Z,99762.03
2022-11-21T06:35:38.989Z,99753.94
2022-11-21T06:38:06.497Z,99763.84
2022-11-21T06:40:33.951Z,99755.34
2022-11-21T06:43:02.844Z,99762.34
2022-11-21T06:45:30.324Z,99764.31
2022-11-21T06:47:57.840Z,99772.38
2022-11-21T06:50:25.351Z,99771.53
2022-11-21T06:52:52.803Z,99771.72
2022-11-21T06:55:21.387Z,99774.84
2022-11-21T06:57:48.874Z,99784.41
2022-11-21T07:00:18.747Z,99779.66
2022-11-21T07:02:46.243Z,99783.00
2022-11-21T07:05:13.779Z,99784.66
2022-11-21T07:07:41.348Z,99784.63
2022-11-21T07:10:09.277Z,99794.44
2022-11-21T07:12:54.378Z,99790.00
2022-11-21T07:15:23.196Z,99798.34
2022-11-21T07:17:50.662Z,99786.44
2022-11-21T07:20:18.179Z,99781.16
2022-11-21T07:22:45.643Z,99771.66
2022-11-21T07:25:13.094Z,99775.88
2022-11-21T07:27:40.592Z,99780.00
2022-11-21T07:30:08.943Z,99766.47
2022-11-21T07:32:37.849Z,99770.13
2022-11-21T07:35:05.777Z,99768.13
2022-11-21T07:37:33.279Z,99764.78
2022-11-21T07:40:00.739Z,99771.25
2022-11-21T07:42:28.256Z,99770.19
2022-11-21T07:44:55.732Z,99774.16
2022-11-21T07:47:23.174Z,99763.91
2022-11-21T07:49:52.072Z,99776.66
2022-11-21T07:52:19.573Z,99766.13
2022-11-21T07:54:47.023Z,99758.34
2022-11-21T07:57:14.536Z,99767.69
2022-11-21T07:59:42.564Z,99764.59
2022-11-21T08:02:13.759Z,99766.78
2022-11-21T08:04:42.901Z,99763.84
2022-11-21T08:07:12.082Z,99764.53
2022-11-21T08:09:39.963Z,99763.75
2022-11-21T08:12:07.564Z,99770.41
2022-11-21T08:14:35.167Z,99765.75
2022-11-21T08:17:02.659Z,99770.22
2022-11-21T08:19:30.379Z,99752.59
2022-11-21T08:21:58.072Z,99758.09
2022-11-21T08:24:26.968Z,99749.88
2022-11-21T08:26:54.527Z,99747.03
2022-11-21T08:29:21.987Z,99753.56
2022-11-21T08:31:49.520Z,99752.69
2022-11-21T08:34:16.992Z,99746.47
2022-11-21T08:36:44.475Z,99747.69
2022-11-21T08:39:11.962Z,99746.09
2022-11-21T08:41:58.459Z,99743.47
2022-11-21T08:44:26.060Z,99748.69
2022-11-21T08:46:53.693Z,99750.13
2022-11-21T08:49:21.207Z,99743.97
2022-11-21T08:51:49.678Z,99750.63
2022-11-21T08:54:17.223Z,99736.50
2022-11-21T08:56:46.237Z,99731.97
2022-11-21T08:59:13.750Z,99725.91
2022-11-21T09:01:41.254Z,99730.75
2022-11-21T09:04:08.970Z,99717.66
2022-11-21T09:06:36.620Z,99726.63
2022-11-21T09:09:05.852Z,99736.31
2022-11-21T09:11:33.384Z,99733.53
2022-11-21T09:14:19.869Z,99734.09
2022-11-21T09:17:04.884Z,99735.09
2022-11-21T09:19:32.378Z,99737.16
2022-11-21T09:21:59.875Z,99725.63
2022-11-21T09:24:27.365Z,99718.59
2022-11-21T09:26:54.879Z,99726.13
2022-11-21T09:29:23.752Z,99715.84
2022-11-21T09:31:51.274Z,99715.66
2022-11-21T09:34:19.530Z,99700.91
2022-11-21T09:36:47.080Z,99699.56
2022-11-21T09:39:14.559Z,99704.88
2022-11-21T09:41:55.390Z,99713.75
2022-11-21T09:44:31.007Z,99701.31
2022-11-21T09:47:00.785Z,99706.75
2022-11-21T09:49:28.606Z,99697.22
2022-11-21T09:51:56.282Z,99706.22
2022-11-21T09:54:24.594Z,99701.34
2022-11-21T09:56:52.551Z,99700.53
2022-11-21T09:59:24.788Z,99700.06
2022-11-21T10:01:53.646Z,99698.84
2022-11-21T10:04:21.157Z,99705.78
2022-11-21T10:06:50.739Z,99689.19
2022-11-21T10:09:19.963Z,99678.84
2022-11-21T10:12:06.478Z,99669.00
2022-11-21T10:14:38.847Z,99679.03
2022-11-21T10:17:09.418Z,99684.84
2022-11-21T10:19:43.504Z,99673.75
2022-11-21T10:22:18.282Z,99664.44
2022-11-21T10:24:48.028Z,99645.38
2022-11-21T10:27:16.194Z,99633.69
2022-11-21T10:29:45.566Z,99620.41
2022-11-21T10:32:16.339Z,99614.25
2022-11-21T10:34:43.791Z,99629.00
2022-11-21T10:37:12.379Z,99622.47
2022-11-21T10:39:40.885Z,99620.41
2022-11-21T10:42:11.635Z,99616.97
2022-11-21T10:44:56.436Z,99610.19
2022-11-21T10:47:30.066Z,99614.50
2022-11-21T10:49:58.936Z,99596.81
2022-11-21T10:52:26.505Z,99611.56
2022-11-21T10:55:04.343Z,99607.28
2022-11-21T10:57:32.932Z,99601.66
2022-11-21T11:00:00.935Z,99588.22
2022-11-21T11:02:29.803Z,99596.44
2022-11-21T11:05:21.769Z,99575.84
2022-11-21T11:08:04.096Z,99584.91
2022-11-21T11:10:31.892Z,99580.25
2022-11-21T11:13:45.385Z,99575.94
2022-11-21T11:16:05.474Z,99564.88
2022-11-21T11:18:35.206Z,99564.66
2022-11-21T11:21:15.955Z,99578.47
2022-11-21T11:23:43.546Z,99563.94
2022-11-21T11:26:21.464Z,99556.59
2022-11-21T11:28:49.096Z,99565.34
2022-11-21T11:31:16.660Z,99557.19
2022-11-21T11:33:51.918Z,99557.28
2022-11-21T11:36:22.360Z,99555.19
2022-11-21T11:38:52.724Z,99550.97
2022-11-21T11:41:51.778Z,99551.72
2022-11-21T11:44:37.478Z,99545.84
2022-11-21T11:47:25.754Z,99541.53
2022-11-21T11:50:14.897Z,99537.97
2022-11-21T11:52:45.154Z,99525.09
2022-11-21T11:55:15.767Z,99523.06
2022-11-21T11:57:43.281Z,99512.03
2022-11-21T12:00:17.364Z,99513.41
2022-11-21T12:02:47.979Z,99518.47
2022-11-21T12:05:18.795Z,99509.38
2022-11-21T12:08:50.301Z,99499.38
2022-11-21T12:10:59.848Z,99474.00
2022-11-21T12:13:27.385Z,99483.91
2022-11-21T12:15:58.664Z,99476.00
2022-11-21T12:18:32.581Z,99460.13
2022-11-21T12:21:03.363Z,99461.50
2022-11-21T12:23:32.152Z,99458.19
2022-11-21T12:26:02.985Z,99464.97
2022-11-21T12:28:31.532Z,99459.34
2022-11-21T12:31:02.467Z,99465.91
2022-11-21T12:33:30.028Z,99476.34
2022-11-21T12:36:18.417Z,99467.41
2022-11-21T12:39:04.358Z,99472.91
2022-11-21T12:41:51.198Z,99451.66
2022-11-21T12:44:25.845Z,99462.63
2022-11-21T12:46:56.932Z,99464.22
2022-11-21T12:49:46.902Z,99455.69
2022-11-21T12:52:47.595Z,99449.72
2022-11-21T12:55:15.972Z,99445.34
2022-11-21T12:57:47.966Z,99440.63
2022-11-21T13:00:16.277Z,99435.81
2022-11-21T13:02:49.707Z,99437.91
2022-11-21T13:05:18.281Z,99433.09
2022-11-21T13:07:46.908Z,99434.38
2022-11-21T13:10:15.930Z,99425.00
2022-11-21T13:12:44.284Z,99413.38
2022-11-21T13:15:17.251Z,99411.94
2022-11-21T13:17:45.948Z,99413.63
2022-11-21T13:20:21.423Z,99414.97
2022-11-21T13:22:49.644Z,99407.28
2022-11-21T13:25:32.052Z,99400.97
2022-11-21T13:28:05.115Z,99409.03
2022-11-21T13:30:33.966Z,99404.66
2022-11-21T13:33:01.462Z,99406.25
2022-11-21T13:35:47.461Z,99387.03
2022-11-21T13:38:15.017Z,99363.84
2022-11-21T13:41:04.072Z,99371.97
2022-11-21T13:43:33.787Z,99375.59
2022-11-21T13:46:03.427Z,99361.53
2022-11-21T13:48:48.897Z,99351.22
2022-11-21T13:51:37.179Z,99353.22
2022-11-21T13:54:23.722Z,99353.03
2022-11-21T13:56:57.746Z,99327.94
2022-11-21T13:59:31.458Z,99338.25
2022-11-21T14:02:19.836Z,99329.91
2022-11-21T14:05:02.983Z,99323.88
2022-11-21T14:07:31.542Z,99317.63
2022-11-21T14:09:59.518Z,99323.72
2022-11-21T14:12:33.652Z,99318.84
2022-11-21T14:15:19.966Z,99326.78
2022-11-21T14:17:49.100Z,99321.56
2022-11-21T14:20:18.300Z,99303.22
2022-11-21T14:22:48.161Z,99304.00
2022-11-21T14:25:17.025Z,99307.88
2022-11-21T14:27:47.250Z,99301.13
2022-11-21T14:30:30.534Z,99291.75
2022-11-21T14:33:09.140Z,99284.47
2022-11-21T14:35:36.619Z,99293.25
2022-11-21T14:38:06.544Z,99296.44
2022-11-21T14:40:34.010Z,99272.84
2022-11-21T14:43:01.459Z,99284.47
2022-11-21T14:45:28.988Z,99284.97
2022-11-21T14:47:56.517Z,99291.44
2022-11-21T14:50:29.996Z,99283.06
2022-11-21T14:53:00.188Z,99258.44
2022-11-21T14:55:31.046Z,99269.97
2022-11-21T14:57:59.640Z,99254.97
2022-11-21T15:03:18.136Z,99256.81
2022-11-21T15:06:01.739Z,99254.31
2022-11-21T15:11:19.437Z,99229.84
2022-11-21T15:14:17.732Z,99231.47
2022-11-21T15:16:35.066Z,99229.16
2022-11-21T15:19:02.535Z,99232.56
2022-11-21T15:21:31.463Z,99234.69
2022-11-21T15:23:58.955Z,99220.50
2022-11-21T15:26:27.650Z,99222.50
2022-11-21T15:28:55.572Z,99216.06
2022-11-21T15:31:23.461Z,99217.72
2022-11-21T15:34:19.316Z,99216.19
2022-11-21T15:36:43.340Z,99202.53
2022-11-21T15:39:13.139Z,99209.19
2022-11-21T15:41:40.624Z,99193.38
2022-11-21T15:44:21.241Z,99199.94
2022-11-21T15:46:51.581Z,99177.59
2022-11-21T15:52:10.462Z,99183.91
2022-11-21T15:54:38.275Z,99176.91
2022-11-21T15:57:05.786Z,99180.53
2022-11-21T15:57:13.980Z,99177.84
2022-11-21T15:59:33.286Z,99172.72
2022-11-21T16:02:00.780Z,99165.72
2022-11-21T16:04:28.305Z,99171.53
2022-11-21T16:06:55.893Z,99173.06
2022-11-21T16:09:25.083Z,99180.31
2022-11-21T16:11:52.609Z,99168.81
2022-11-21T16:14:20.128Z,99157.31
2022-11-21T16:16:47.847Z,99136.19
2022-11-21T16:19:15.837Z,99151.25
2022-11-21T16:21:43.601Z,99140.34
2022-11-21T16:24:11.108Z,99136.72
2022-11-21T16:26:39.936Z,99132.72
2022-11-21T16:29:07.568Z,99114.78
2022-11-21T16:31:35.183Z,99108.53
2022-11-21T16:34:02.833Z,99122.47
2022-11-21T16:36:30.912Z,99124.38
2022-11-21T16:39:05.200Z,99102.41
2022-11-21T16:41:35.567Z,99107.19
2022-11-21T16:44:04.499Z,99099.63
2022-11-21T16:46:32.035Z,99093.88
2022-11-21T16:49:00.382Z,99083.34
2022-11-21T16:51:27.990Z,99085.41
2022-11-21T16:53:55.487Z,99078.75
2022-11-21T16:56:23.013Z,99075.25
2022-11-21T16:58:50.477Z,99070.22
2022-11-21T17:01:19.826Z,99071.19
2022-11-21T17:03:48.019Z,99055.47
2022-11-21T17:06:16.468Z,99047.25
2022-11-21T17:08:43.943Z,99056.94
2022-11-21T17:11:14.766Z,99054.38
2022-11-21T17:13:42.475Z,99042.47
2022-11-21T17:16:10.516Z,99043.97
2022-11-21T17:18:39.577Z,99035.03
2022-11-21T17:21:07.316Z,99042.06
2022-11-21T17:23:34.802Z,99021.50
2022-11-21T17:26:03.134Z,99028.56
2022-11-21T17:28:30.884Z,99012.97
2022-11-21T17:30:58.400Z,99012.69
2022-11-21T17:33:26.141Z,99015.28
2022-11-21T17:35:55.033Z,99011.16
2022-11-21T17:38:22.536Z,99010.72
2022-11-21T17:40:59.676Z,99020.72
2022-11-21T17:43:27.160Z,99029.22
2022-11-21T17:45:58.001Z,99026.72
2022-11-21T17:48:25.490Z,99028.84
2022-11-21T17:51:00.339Z,98998.78
2022-11-21T17:53:27.961Z,99014.53
2022-11-21T17:55:58.092Z,99012.19
2022-11-21T17:58:25.598Z,99016.25
2022-11-21T18:00:55.282Z,99025.28
2022-11-21T18:03:22.896Z,99026.13
2022-11-21T18:05:51.787Z,99019.13
2022-11-21T18:08:20.857Z,99022.38
2022-11-21T18:10:53.022Z,99014.03
2022-11-21T18:13:20.569Z,98998.97
2022-11-21T18:15:48.220Z,98991.13
2022-11-21T18:18:15.719Z,98988.09
2022-11-21T18:20:43.257Z,98984.53
2022-11-21T18:23:10.790Z,98996.94
2022-11-21T18:25:39.701Z,98985.34
2022-11-21T18:28:07.205Z,98991.91
2022-11-21T18:30:34.767Z,98988.25
2022-11-21T18:33:03.147Z,98989.84
2022-11-21T18:35:30.639Z,98974.91
2022-11-21T18:37:58.851Z,98970.53
2022-11-21T18:40:26.390Z,98966.53
2022-11-21T18:42:55.220Z,98951.38
2022-11-21T18:45:22.744Z,98958.09
2022-11-21T18:47:50.199Z,98953.06
2022-11-21T18:50:17.775Z,98941.25
2022-11-21T18:52:46.805Z,98946.78
2022-11-21T18:55:14.673Z,98935.75
2022-11-21T18:57:42.155Z,98937.25
2022-11-21T19:00:12.213Z,98920.16
2022-11-21T19:02:39.729Z,98913.94
2022-11-21T19:05:07.493Z,98919.34
2022-11-21T19:07:35.039Z,98910.72
2022-11-21T19:10:27.820Z,98908.25
2022-11-21T19:12:50.039Z,98909.38
2022-11-21T19:15:18.957Z,98913.75
2022-11-21T19:17:46.480Z,98912.56
2022-11-21T19:20:14.052Z,98913.16
2022-11-21T19:22:41.576Z,98912.69
2022-11-21T19:25:09.553Z,98914.31
2022-11-21T19:27:37.040Z,98909.94
2022-11-21T19:30:04.719Z,98891.25
2022-11-21T19:32:34.226Z,98896.59
2022-11-21T19:35:01.730Z,98875.66
2022-11-21T19:37:30.090Z,98866.44
2022-11-21T19:39:57.598Z,98871.41
2022-11-21T19:42:25.117Z,98883.19
2022-11-21T19:44:52.656Z,98881.03
2022-11-21T19:47:20.187Z,98883.00
2022-11-21T19:49:49.065Z,98887.47
2022-11-21T19:52:16.539Z,98872.44
2022-11-21T19:54:44.059Z,98885.06
2022-11-21T19:57:14.080Z,98869.88
2022-11-21T19:59:46.454Z,98868.03
2022-11-21T20:02:16.203Z,98873.44
2022-11-21T20:04:43.639Z,98871.78
2022-11-21T20:07:12.642Z,98858.41
2022-11-21T20:09:40.725Z,98860.78
2022-11-21T20:12:08.774Z,98862.91
2022-11-21T20:14:36.243Z,98861.72
2022-11-21T20:17:03.765Z,98840.81
2022-11-21T20:19:31.764Z,98857.59
2022-11-21T20:22:00.095Z,98848.28
2022-11-21T20:24:29.603Z,98853.25
2022-11-21T20:26:59.037Z,98845.84
2022-11-21T20:29:26.568Z,98848.84
2022-11-21T20:31:55.013Z,98852.16
2022-11-21T20:34:23.154Z,98843.44
2022-11-21T20:36:51.310Z,98850.38
2022-11-21T20:39:19.162Z,98840.22
2022-11-21T20:41:48.222Z,98848.88
2022-11-21T20:47:03.760Z,98847.84
2022-11-21T20:49:31.880Z,98849.06
2022-11-21T20:54:47.106Z,98829.00
2022-11-21T20:57:16.034Z,98838.03
2022-11-21T20:59:43.553Z,98835.84
2022-11-21T21:02:13.703Z,98828.72
2022-11-21T21:04:41.211Z,98808.56
2022-11-21T21:07:08.724Z,98813.25
2022-11-21T21:09:36.245Z,98811.84
2022-11-21T21:12:04.071Z,98804.88
2022-11-21T21:14:32.983Z,98798.00
2022-11-21T21:17:02.527Z,98792.84
2022-11-21T21:19:30.232Z,98795.06
2022-11-21T21:21:57.887Z,98798.53
2022-11-21T21:24:25.412Z,98781.66
2022-11-21T21:26:52.924Z,98775.59
2022-11-21T21:29:20.813Z,98772.53
2022-11-21T21:31:52.312Z,98775.13
2022-11-21T21:34:20.743Z,98770.00
2022-11-21T21:36:48.238Z,98766.19
2022-11-21T21:39:15.888Z,98768.50
2022-11-21T21:41:45.774Z,98747.63
2022-11-21T21:44:13.251Z,98746.16
2022-11-21T21:46:40.739Z,98751.88
2022-11-21T21:49:09.567Z,98743.75
2022-11-21T21:51:37.356Z,98743.34
2022-11-21T21:54:05.260Z,98742.59
2022-11-21T21:56:33.625Z,98741.88
2022-11-21T21:59:01.161Z,98749.72
2022-11-21T22:01:29.086Z,98751.56
2022-11-21T22:03:57.242Z,98747.84
2022-11-21T22:06:26.151Z,98748.97
2022-11-21T22:08:54.508Z,98743.72
2022-11-21T22:11:22.752Z,98750.16
2022-11-21T22:13:52.535Z,98745.22
2022-11-21T22:16:20.080Z,98753.34
2022-11-21T22:18:47.607Z,98746.00
2022-11-21T22:21:15.446Z,98751.94
2022-11-21T22:24:09.253Z,98753.88
2022-11-21T22:26:32.189Z,98756.94
2022-11-21T22:28:59.618Z,98746.34
2022-11-21T22:31:27.161Z,98748.56
2022-11-21T22:33:55.159Z,98744.69
2022-11-21T22:36:22.652Z,98758.84
2022-11-21T22:38:53.112Z,98749.78
2022-11-21T22:41:21.096Z,98741.94
2022-11-21T22:43:50.203Z,98741.88
2022-11-21T22:46:17.803Z,98740.28
2022-11-21T22:48:45.247Z,98735.28
2022-11-21T22:51:13.315Z,98709.44
2022-11-21T22:53:40.860Z,98707.56
2022-11-21T22:56:10.590Z,98712.97
2022-11-21T22:58:39.296Z,98709.72
2022-11-21T23:01:08.420Z,98709.25
2022-11-21T23:03:36.172Z,98707.38
2022-11-21T23:06:03.836Z,98699.53
2022-11-21T23:08:31.451Z,98697.16
2022-11-21T23:11:05.133Z,98711.19
2022-11-21T23:13:34.054Z,98702.22
2022-11-21T23:16:01.680Z,98703.41
2022-11-21T23:18:29.153Z,98688.38
2022-11-21T23:20:56.703Z,98690.94
2022-11-21T23:23:24.686Z,98684.41
2022-11-21T23:25:52.185Z,98687.22
2022-11-21T23:28:19.811Z,98684.56
2022-11-21T23:30:49.270Z,98678.09
2022-11-21T23:33:16.782Z,98676.38
2022-11-21T23:35:44.517Z,98659.00
2022-11-21T23:38:12.003Z,98662.63
2022-11-21T23:40:39.501Z,98653.31
2022-11-21T23:43:07.392Z,98655.34
2022-11-21T23:45:34.944Z,98655.22
2022-11-21T23:48:03.767Z,98653.47
2022-11-21T23:50:31.283Z,98657.00
2022-11-21T23:52:58.802Z,98653.03
2022-11-21T23:55:26.274Z,98633.31
2022-11-21T23:57:53.722Z,98642.03
